Avon, Illinois
Current Conditions -  °F | °C
As of 6:55 AM on Wednesday 26 Nov 2014 (Local Time) from KMQB Reporting Station
Clear Clear  
Wind Chill: 15°   Ceiling: Unl
Heat Index: 25°   Visibility: 7mi
Dew Point: 25°   Wind: 10mph
Humidity: 97%   Direction: 120°ESE
Pressure: 30.07"   Gusts: NA
Location:  40.66°N, 90.43°W
Report Text: KMQB 261255Z AUTO 12009KT 7SM CLR M04/M04 A3007 RMK AO2 T10371041
Loading
Personal Weather Stations






























Interactive Weather Map New forecast layout! Learn more

10-Day Weather Forecast

Advertisements
Track Severe Weather on mobile